createdAt,value
2018-09-25T00:00:40.563Z,10.40
2018-09-25T00:03:14.938Z,10.40
2018-09-25T00:05:49.268Z,10.30
2018-09-25T00:08:23.578Z,10.30
2018-09-25T00:10:57.912Z,10.30
2018-09-25T00:13:32.244Z,10.20
2018-09-25T00:16:06.672Z,10.20
2018-09-25T00:18:40.915Z,10.00
2018-09-25T00:21:15.229Z,9.80
2018-09-25T00:26:24.743Z,10.20
2018-09-25T00:28:59.073Z,10.20
2018-09-25T00:31:33.377Z,10.20
2018-09-25T00:34:07.695Z,10.20
2018-09-25T00:36:42.165Z,10.20
2018-09-25T00:39:16.441Z,10.30
2018-09-25T00:42:01.237Z,10.20
2018-09-25T00:44:35.495Z,10.20
2018-09-25T00:47:09.930Z,10.20
2018-09-25T00:49:44.168Z,10.20
2018-09-25T00:52:18.481Z,10.20
2018-09-25T00:54:52.786Z,10.20
2018-09-25T00:57:27.127Z,10.10
2018-09-25T01:00:01.435Z,10.20
2018-09-25T01:02:35.719Z,10.20
2018-09-25T01:05:10.067Z,10.10
2018-09-25T01:07:44.420Z,10.00
2018-09-25T01:10:18.649Z,9.90
2018-09-25T01:12:53.684Z,9.90
2018-09-25T01:15:27.977Z,9.90
2018-09-25T01:18:02.268Z,9.80
2018-09-25T01:20:36.615Z,9.90
2018-09-25T01:23:10.956Z,9.90
2018-09-25T01:25:46.031Z,10.00
2018-09-25T01:28:20.358Z,10.00
2018-09-25T01:30:54.674Z,10.00
2018-09-25T01:33:29.176Z,9.90
2018-09-25T01:36:03.493Z,9.80
2018-09-25T01:38:37.814Z,9.50
2018-09-25T01:41:12.129Z,9.40
2018-09-25T01:43:46.458Z,9.40
2018-09-25T01:46:20.761Z,9.40
2018-09-25T01:48:55.080Z,9.30
2018-09-25T01:51:29.522Z,9.40
2018-09-25T01:54:03.836Z,9.40
2018-09-25T01:56:38.149Z,9.30
2018-09-25T01:59:12.495Z,9.30
2018-09-25T02:01:46.810Z,9.30
2018-09-25T02:04:21.252Z,9.40
2018-09-25T02:06:56.345Z,9.10
2018-09-25T02:09:30.663Z,9.30
2018-09-25T02:12:05.010Z,9.20
2018-09-25T02:17:15.555Z,9.30
2018-09-25T02:19:49.856Z,9.30
2018-09-25T02:22:24.341Z,9.10
2018-09-25T02:24:58.641Z,9.10
2018-09-25T02:27:32.957Z,9.20
2018-09-25T02:30:07.271Z,9.10
2018-09-25T02:32:41.571Z,9.10
2018-09-25T02:35:15.878Z,9.10
2018-09-25T02:37:50.221Z,8.90
2018-09-25T02:40:24.558Z,8.90
2018-09-25T02:42:58.879Z,8.90
2018-09-25T02:45:33.994Z,8.80
2018-09-25T02:48:08.308Z,8.90
2018-09-25T02:50:42.610Z,9.00
2018-09-25T02:53:16.951Z,8.90
2018-09-25T02:55:51.267Z,8.90
2018-09-25T02:58:25.587Z,9.00
2018-09-25T03:00:59.898Z,8.90
2018-09-25T03:03:34.209Z,8.80
2018-09-25T03:06:08.535Z,8.70
2018-09-25T03:08:42.876Z,8.70
2018-09-25T03:11:18.113Z,8.50
2018-09-25T03:13:53.192Z,8.40
2018-09-25T03:16:27.505Z,8.60
2018-09-25T03:19:01.817Z,8.50
2018-09-25T03:21:36.157Z,8.40
2018-09-25T03:24:10.619Z,8.30
2018-09-25T03:26:45.881Z,8.10
2018-09-25T03:29:20.135Z,8.20
2018-09-25T03:31:54.543Z,8.20
2018-09-25T03:34:28.899Z,8.00
2018-09-25T03:37:03.354Z,8.10
2018-09-25T03:39:37.672Z,8.20
2018-09-25T03:42:11.913Z,8.20
2018-09-25T03:44:46.250Z,8.10
2018-09-25T03:47:20.577Z,8.10
2018-09-25T03:49:55.089Z,8.30
2018-09-25T03:52:29.388Z,8.30
2018-09-25T03:55:03.699Z,8.20
2018-09-25T03:57:38.101Z,8.10
2018-09-25T04:00:12.357Z,8.10
2018-09-25T04:02:46.654Z,8.20
2018-09-25T04:05:21.117Z,8.10
2018-09-25T04:07:55.596Z,8.10
2018-09-25T04:10:30.073Z,7.90
2018-09-25T04:13:05.127Z,7.90
2018-09-25T04:15:39.406Z,8.10
2018-09-25T04:18:13.721Z,8.10
2018-09-25T04:20:47.965Z,8.00
2018-09-25T04:23:22.286Z,7.90
2018-09-25T04:25:56.553Z,8.00
2018-09-25T04:28:31.087Z,7.80
2018-09-25T04:31:05.216Z,7.90
2018-09-25T04:33:39.538Z,7.80
2018-09-25T04:36:13.853Z,7.80
2018-09-25T04:38:48.859Z,7.70
2018-09-25T04:41:23.288Z,7.70
2018-09-25T04:43:57.624Z,7.70
2018-09-25T04:46:32.094Z,7.60
2018-09-25T04:49:06.367Z,7.70
2018-09-25T04:51:40.654Z,7.70
2018-09-25T04:54:14.912Z,7.70
2018-09-25T04:56:49.353Z,7.70
2018-09-25T04:59:23.815Z,7.70
2018-09-25T05:01:58.152Z,7.80
2018-09-25T05:04:32.478Z,7.80
2018-09-25T05:07:07.041Z,7.80
2018-09-25T05:09:41.525Z,8.00
2018-09-25T05:14:50.148Z,7.90
2018-09-25T05:17:24.438Z,7.80
2018-09-25T05:19:58.922Z,7.90
2018-09-25T05:22:33.249Z,7.90
2018-09-25T05:25:07.578Z,7.90
2018-09-25T05:27:42.134Z,7.90
2018-09-25T05:30:16.451Z,7.90
2018-09-25T05:32:50.746Z,7.90
2018-09-25T05:35:25.058Z,8.00
2018-09-25T05:37:59.539Z,8.00
2018-09-25T05:40:33.867Z,8.00
2018-09-25T05:43:08.138Z,8.00
2018-09-25T05:45:42.460Z,7.90
2018-09-25T05:48:16.728Z,7.90
2018-09-25T05:50:51.154Z,8.10
2018-09-25T05:53:25.613Z,8.10
2018-09-25T05:56:00.132Z,8.00
2018-09-25T05:58:34.469Z,8.00
2018-09-25T06:01:08.843Z,8.10
2018-09-25T06:03:43.146Z,8.20
2018-09-25T06:06:17.657Z,8.20
2018-09-25T06:08:52.083Z,8.20
2018-09-25T06:11:27.328Z,8.20
2018-09-25T06:14:01.600Z,8.30
2018-09-25T06:16:35.904Z,8.40
2018-09-25T06:19:10.949Z,8.50
2018-09-25T06:21:45.295Z,8.60
2018-09-25T06:24:19.625Z,8.60
2018-09-25T06:26:54.002Z,8.60
2018-09-25T06:29:29.191Z,8.60
2018-09-25T06:32:03.630Z,8.70
2018-09-25T06:34:38.060Z,8.70
2018-09-25T06:37:12.430Z,8.70
2018-09-25T06:39:46.714Z,8.90
2018-09-25T06:42:21.048Z,8.90
2018-09-25T06:44:55.338Z,8.90
2018-09-25T06:47:29.687Z,8.90
2018-09-25T06:50:03.997Z,9.00
2018-09-25T06:52:38.322Z,9.00
2018-09-25T06:55:13.551Z,9.10
2018-09-25T06:57:47.761Z,9.20
2018-09-25T07:00:22.074Z,9.10
2018-09-25T07:02:57.163Z,9.20
2018-09-25T07:05:31.479Z,9.20
2018-09-25T07:08:05.766Z,9.30
2018-09-25T07:10:40.205Z,9.30
2018-09-25T07:13:14.439Z,9.30
2018-09-25T07:15:48.793Z,9.40
2018-09-25T07:18:23.113Z,9.40
2018-09-25T07:20:57.421Z,9.40
2018-09-25T07:23:31.711Z,9.40
2018-09-25T07:26:06.057Z,9.50
2018-09-25T07:28:40.343Z,9.50
2018-09-25T07:31:14.693Z,9.60
2018-09-25T07:33:49.009Z,9.60
2018-09-25T07:36:23.326Z,9.70
2018-09-25T07:38:57.644Z,9.80
2018-09-25T07:41:31.990Z,9.80
2018-09-25T07:44:07.117Z,9.90
2018-09-25T07:46:41.411Z,10.00
2018-09-25T07:49:33.339Z,10.00
2018-09-25T07:52:07.671Z,10.10
2018-09-25T07:54:42.007Z,10.20
2018-09-25T07:57:17.223Z,10.30
2018-09-25T07:59:51.552Z,10.30
2018-09-25T08:02:25.852Z,10.40
2018-09-25T08:05:00.257Z,10.50
2018-09-25T08:07:34.625Z,10.60
2018-09-25T08:10:09.059Z,10.70
2018-09-25T08:12:43.519Z,10.70
2018-09-25T08:15:17.771Z,10.80
2018-09-25T08:17:52.061Z,10.80
2018-09-25T08:20:26.343Z,10.80
2018-09-25T08:23:00.802Z,10.90
2018-09-25T08:25:35.115Z,11.10
2018-09-25T08:28:09.554Z,11.20
2018-09-25T08:30:44.661Z,11.30
2018-09-25T08:33:18.970Z,11.40
2018-09-25T08:35:53.315Z,11.40
2018-09-25T08:38:27.664Z,11.40
2018-09-25T08:41:02.163Z,11.60
2018-09-25T08:43:36.460Z,11.70
2018-09-25T08:46:10.719Z,11.70
2018-09-25T08:48:45.022Z,11.80
2018-09-25T08:51:19.378Z,12.00
2018-09-25T08:53:53.798Z,12.00
2018-09-25T08:56:28.108Z,12.10
2018-09-25T08:59:02.442Z,12.00
2018-09-25T09:01:36.875Z,12.10
2018-09-25T09:04:11.386Z,12.30
2018-09-25T09:06:45.864Z,12.30
2018-09-25T09:09:21.165Z,12.40
2018-09-25T09:11:55.441Z,12.60
2018-09-25T09:14:29.768Z,12.70
2018-09-25T09:17:04.095Z,12.70
2018-09-25T09:19:38.613Z,12.90
2018-09-25T09:22:13.617Z,13.00
2018-09-25T09:24:48.689Z,13.00
2018-09-25T09:27:23.133Z,13.10
2018-09-25T09:29:57.438Z,13.20
2018-09-25T09:32:31.822Z,13.30
2018-09-25T09:35:06.103Z,13.30
2018-09-25T09:37:40.416Z,13.30
2018-09-25T09:40:14.875Z,13.40
2018-09-25T09:42:49.208Z,13.40
2018-09-25T09:45:23.646Z,13.40
2018-09-25T09:47:57.943Z,13.40
2018-09-25T09:50:32.446Z,13.50
2018-09-25T09:53:06.581Z,13.60
2018-09-25T09:55:40.837Z,13.70
2018-09-25T09:58:15.159Z,13.70
2018-09-25T10:00:49.437Z,13.70
2018-09-25T10:03:23.816Z,13.80
2018-09-25T10:05:58.220Z,13.80
2018-09-25T10:08:32.542Z,14.00
2018-09-25T10:11:07.741Z,14.20
2018-09-25T10:13:42.087Z,14.30
2018-09-25T10:16:16.524Z,14.50
2018-09-25T10:18:51.580Z,14.50
2018-09-25T10:21:25.808Z,14.50
2018-09-25T10:24:00.249Z,14.50
2018-09-25T10:26:34.555Z,14.50
2018-09-25T10:29:08.934Z,14.50
2018-09-25T10:31:44.215Z,14.50
2018-09-25T10:34:18.717Z,14.60
2018-09-25T10:36:52.890Z,14.50
2018-09-25T10:39:27.329Z,14.10
2018-09-25T10:42:01.744Z,14.10
2018-09-25T10:44:36.035Z,14.20
2018-09-25T10:47:10.352Z,14.20
2018-09-25T10:49:44.727Z,14.00
2018-09-25T10:52:19.204Z,14.00
2018-09-25T10:54:57.434Z,14.30
2018-09-25T10:57:31.742Z,14.50
2018-09-25T11:00:06.963Z,14.70
2018-09-25T11:02:41.286Z,14.70
2018-09-25T11:05:15.752Z,14.50
2018-09-25T11:07:50.158Z,14.50
2018-09-25T11:10:24.470Z,14.40
2018-09-25T11:12:58.752Z,14.50
2018-09-25T11:15:32.988Z,14.60
2018-09-25T11:18:07.533Z,14.80
2018-09-25T11:20:41.878Z,14.80
2018-09-25T11:23:16.411Z,15.00
2018-09-25T11:25:50.818Z,15.10
2018-09-25T11:28:25.138Z,15.00
2018-09-25T11:30:59.453Z,14.90
2018-09-25T11:33:33.783Z,14.80
2018-09-25T11:36:08.254Z,14.70
2018-09-25T11:38:43.411Z,14.60
2018-09-25T11:41:17.919Z,14.50
2018-09-25T11:43:52.118Z,14.70
2018-09-25T11:46:27.137Z,15.00
2018-09-25T11:49:01.460Z,15.20
2018-09-25T11:51:35.746Z,15.40
2018-09-25T11:54:10.086Z,15.50
2018-09-25T11:56:44.441Z,15.70
2018-09-25T11:59:18.725Z,15.90
2018-09-25T12:01:53.200Z,15.80
2018-09-25T12:04:27.560Z,16.00
2018-09-25T12:07:01.955Z,16.10
2018-09-25T12:09:36.258Z,16.30
2018-09-25T12:12:10.729Z,16.30
2018-09-25T12:14:45.151Z,16.30
2018-09-25T12:17:19.662Z,16.30
2018-09-25T12:19:54.070Z,16.40
2018-09-25T12:22:28.552Z,16.50
2018-09-25T12:25:03.029Z,16.70
2018-09-25T12:27:37.419Z,16.60
2018-09-25T12:30:11.749Z,16.90
2018-09-25T12:32:46.089Z,17.10
2018-09-25T12:35:20.318Z,16.90
2018-09-25T12:37:55.335Z,16.90
2018-09-25T12:40:29.786Z,17.00
2018-09-25T12:43:04.127Z,17.00
2018-09-25T12:45:38.476Z,17.30
2018-09-25T12:48:12.848Z,17.30
2018-09-25T12:50:47.204Z,17.20
2018-09-25T12:53:21.696Z,17.10
2018-09-25T12:55:56.052Z,17.20
2018-09-25T12:58:30.289Z,17.10
2018-09-25T13:01:04.597Z,17.20
2018-09-25T13:03:38.964Z,17.40
2018-09-25T13:06:13.298Z,17.50
2018-09-25T13:08:47.639Z,17.50
2018-09-25T13:11:21.910Z,17.50
2018-09-25T13:13:56.195Z,17.50
2018-09-25T13:16:31.255Z,17.40
2018-09-25T13:19:05.782Z,17.40
2018-09-25T13:21:40.299Z,17.50
2018-09-25T13:24:14.790Z,17.50
2018-09-25T13:26:49.857Z,17.60
2018-09-25T13:29:24.293Z,17.70
2018-09-25T13:31:58.546Z,17.80
2018-09-25T13:34:32.822Z,17.80
2018-09-25T13:37:07.194Z,17.90
2018-09-25T13:39:41.634Z,17.90
2018-09-25T13:42:15.889Z,17.90
2018-09-25T13:44:50.372Z,17.80
2018-09-25T13:47:24.927Z,17.80
2018-09-25T13:49:59.365Z,17.90
2018-09-25T13:52:33.827Z,17.90
2018-09-25T13:55:08.121Z,17.90
2018-09-25T13:57:42.418Z,17.80
2018-09-25T14:00:16.749Z,17.90
2018-09-25T14:02:51.237Z,17.80
2018-09-25T14:05:25.535Z,17.50
2018-09-25T14:07:59.950Z,17.60
2018-09-25T14:10:34.286Z,17.70
2018-09-25T14:13:08.572Z,17.80
2018-09-25T14:15:43.750Z,18.00
2018-09-25T14:18:18.272Z,18.00
2018-09-25T14:20:52.685Z,18.00
2018-09-25T14:23:27.105Z,18.00
2018-09-25T14:26:01.595Z,18.00
2018-09-25T14:28:36.687Z,17.90
2018-09-25T14:31:11.161Z,18.00
2018-09-25T14:33:45.453Z,17.90
2018-09-25T14:36:19.765Z,18.00
2018-09-25T14:38:54.128Z,18.20
2018-09-25T14:41:28.396Z,18.20
2018-09-25T14:44:02.695Z,18.30
2018-09-25T14:46:37.241Z,18.10
2018-09-25T14:49:11.688Z,18.10
2018-09-25T14:51:46.073Z,17.90
2018-09-25T14:56:55.734Z,18.00
2018-09-25T14:59:30.041Z,18.10
2018-09-25T15:02:04.523Z,18.10
2018-09-25T15:04:38.893Z,18.00
2018-09-25T15:07:13.214Z,17.90
2018-09-25T15:09:47.428Z,17.80
2018-09-25T15:12:21.745Z,17.80
2018-09-25T15:14:56.057Z,17.90
2018-09-25T15:17:30.326Z,17.90
2018-09-25T15:20:04.733Z,17.90
2018-09-25T15:22:39.048Z,17.80
2018-09-25T15:25:13.515Z,17.70
2018-09-25T15:27:47.785Z,17.60
2018-09-25T15:30:22.119Z,17.60
2018-09-25T15:32:56.568Z,17.70
2018-09-25T15:35:30.933Z,17.70
2018-09-25T15:38:05.416Z,17.60
2018-09-25T15:40:39.908Z,17.50
2018-09-25T15:43:14.078Z,17.50
2018-09-25T15:45:48.472Z,17.30
2018-09-25T15:48:22.799Z,17.30
2018-09-25T15:50:57.210Z,17.30
2018-09-25T15:53:31.675Z,17.30
2018-09-25T15:56:06.100Z,17.10
2018-09-25T15:58:40.455Z,16.90
2018-09-25T16:01:14.755Z,16.90
2018-09-25T16:03:49.202Z,16.90
2018-09-25T16:06:23.793Z,16.80
2018-09-25T16:08:57.983Z,16.80
2018-09-25T16:11:32.313Z,16.80
2018-09-25T16:14:06.838Z,16.70
2018-09-25T16:16:41.526Z,16.60
2018-09-25T16:19:16.547Z,16.40
2018-09-25T16:21:51.052Z,16.30
2018-09-25T16:24:26.084Z,16.20
2018-09-25T16:27:00.619Z,16.10
2018-09-25T16:29:34.989Z,16.00
2018-09-25T16:32:09.333Z,16.00
2018-09-25T16:34:43.629Z,15.80
2018-09-25T16:37:18.399Z,15.70
2018-09-25T16:39:52.853Z,15.70
2018-09-25T16:42:27.331Z,15.60
2018-09-25T16:45:01.627Z,15.50
2018-09-25T16:47:36.062Z,15.50
2018-09-25T16:50:10.381Z,15.50
2018-09-25T16:52:44.716Z,15.30
2018-09-25T16:55:19.154Z,15.30
2018-09-25T16:57:53.475Z,15.30
2018-09-25T17:00:27.833Z,15.20
2018-09-25T17:03:02.202Z,15.10
2018-09-25T17:05:36.527Z,15.10
2018-09-25T17:08:11.074Z,15.00
2018-09-25T17:10:45.463Z,14.90
2018-09-25T17:13:19.999Z,14.90
2018-09-25T17:15:54.276Z,14.80
2018-09-25T17:18:28.604Z,14.70
2018-09-25T17:21:02.920Z,14.70
2018-09-25T17:23:37.208Z,14.70
2018-09-25T17:26:11.624Z,14.60
2018-09-25T17:28:46.031Z,14.50
2018-09-25T17:31:20.530Z,14.50
2018-09-25T17:33:55.792Z,14.40
2018-09-25T17:36:30.313Z,14.30
2018-09-25T17:39:04.781Z,14.30
2018-09-25T17:41:39.198Z,14.30
2018-09-25T17:44:13.566Z,14.20
2018-09-25T17:46:48.758Z,14.20
2018-09-25T17:49:23.113Z,14.20
2018-09-25T17:51:57.310Z,14.10
2018-09-25T17:54:32.426Z,14.10
2018-09-25T17:57:06.769Z,14.10
2018-09-25T17:59:41.861Z,14.00
2018-09-25T18:02:16.195Z,14.10
2018-09-25T18:04:50.597Z,14.00
2018-09-25T18:07:25.072Z,14.00
2018-09-25T18:09:59.414Z,13.90
2018-09-25T18:12:33.851Z,13.90
2018-09-25T18:15:08.197Z,13.80
2018-09-25T18:17:42.527Z,13.80
2018-09-25T18:20:16.943Z,13.80
2018-09-25T18:22:52.048Z,13.80
2018-09-25T18:25:26.328Z,13.80
2018-09-25T18:28:00.947Z,13.80
2018-09-25T18:30:35.375Z,13.70
2018-09-25T18:33:09.728Z,13.70
2018-09-25T18:35:44.071Z,13.70
2018-09-25T18:38:18.536Z,13.60
2018-09-25T18:40:53.015Z,13.50
2018-09-25T18:46:02.811Z,13.50
2018-09-25T18:48:37.915Z,13.40
2018-09-25T18:51:12.213Z,13.40
2018-09-25T18:53:46.524Z,13.30
2018-09-25T18:56:20.865Z,13.30
2018-09-25T18:58:55.193Z,13.30
2018-09-25T19:01:29.538Z,13.20
2018-09-25T19:04:03.850Z,13.20
2018-09-25T19:06:38.533Z,13.10
2018-09-25T19:09:12.802Z,13.10
2018-09-25T19:11:47.139Z,13.00
2018-09-25T19:14:21.635Z,13.00
2018-09-25T19:16:56.035Z,13.00
2018-09-25T19:19:31.120Z,13.00
2018-09-25T19:22:05.416Z,12.90
2018-09-25T19:24:39.667Z,12.90
2018-09-25T19:27:13.969Z,12.80
2018-09-25T19:29:48.465Z,12.80
2018-09-25T19:32:22.756Z,12.90
2018-09-25T19:34:57.054Z,12.80
2018-09-25T19:37:31.404Z,12.80
2018-09-25T19:40:05.867Z,12.80
2018-09-25T19:42:40.220Z,12.80
2018-09-25T19:45:15.239Z,12.70
2018-09-25T19:47:49.560Z,12.70
2018-09-25T19:50:24.044Z,12.70
2018-09-25T19:52:58.316Z,12.70
2018-09-25T19:55:33.462Z,12.60
2018-09-25T19:58:07.735Z,12.80
2018-09-25T20:00:42.049Z,12.70
2018-09-25T20:03:16.369Z,12.70
2018-09-25T20:05:50.685Z,12.60
2018-09-25T20:08:24.994Z,12.60
2018-09-25T20:10:59.323Z,12.50
2018-09-25T20:13:33.689Z,12.50
2018-09-25T20:16:08.004Z,12.50
2018-09-25T20:18:42.310Z,12.40
2018-09-25T20:21:16.723Z,12.50
2018-09-25T20:23:50.976Z,12.40
2018-09-25T20:26:25.286Z,12.40
2018-09-25T20:28:59.577Z,12.40
2018-09-25T20:31:33.914Z,12.40
2018-09-25T20:34:08.245Z,12.30
2018-09-25T20:36:42.544Z,12.30
2018-09-25T20:39:17.623Z,12.20
2018-09-25T20:41:51.903Z,12.20
2018-09-25T20:44:26.260Z,12.10
2018-09-25T20:47:00.588Z,12.10
2018-09-25T20:49:35.120Z,12.10
2018-09-25T20:52:09.496Z,12.10
2018-09-25T20:54:43.785Z,12.10
2018-09-25T20:57:18.262Z,12.10
2018-09-25T20:59:52.612Z,12.10
2018-09-25T21:02:27.055Z,12.10
2018-09-25T21:05:01.337Z,12.10
2018-09-25T21:07:35.653Z,12.00
2018-09-25T21:10:10.004Z,12.00
2018-09-25T21:12:44.346Z,12.00
2018-09-25T21:15:18.793Z,11.90
2018-09-25T21:17:53.236Z,11.90
2018-09-25T21:20:27.508Z,11.90
2018-09-25T21:23:01.956Z,11.80
2018-09-25T21:25:36.279Z,11.80
2018-09-25T21:30:45.864Z,11.70
2018-09-25T21:33:20.149Z,11.70
2018-09-25T21:35:54.584Z,11.60
2018-09-25T21:41:04.035Z,11.60
2018-09-25T21:43:38.499Z,11.50
2018-09-25T21:46:12.879Z,11.40
2018-09-25T21:48:47.203Z,11.30
2018-09-25T21:51:21.872Z,11.40
2018-09-25T21:53:56.013Z,11.40
2018-09-25T21:56:30.444Z,11.50
2018-09-25T21:59:04.835Z,11.40
2018-09-25T22:01:39.240Z,11.40
2018-09-25T22:04:13.526Z,11.30
2018-09-25T22:06:47.846Z,11.30
2018-09-25T22:09:22.936Z,11.30
2018-09-25T22:11:57.421Z,11.20
2018-09-25T22:14:31.898Z,11.20
2018-09-25T22:17:06.359Z,11.20
2018-09-25T22:19:40.767Z,11.30
2018-09-25T22:22:15.958Z,11.20
2018-09-25T22:24:50.499Z,11.20
2018-09-25T22:27:25.585Z,11.30
2018-09-25T22:29:59.862Z,11.30
2018-09-25T22:32:34.118Z,11.20
2018-09-25T22:35:08.428Z,11.20
2018-09-25T22:37:42.864Z,11.20
2018-09-25T22:40:17.302Z,11.20
2018-09-25T22:42:51.620Z,11.20
2018-09-25T22:45:25.938Z,11.10
2018-09-25T22:48:00.170Z,11.10
2018-09-25T22:50:34.471Z,11.00
2018-09-25T22:53:08.768Z,11.00
2018-09-25T22:55:43.104Z,11.00
2018-09-25T22:58:17.423Z,11.00
2018-09-25T23:00:51.776Z,10.90
2018-09-25T23:03:26.837Z,10.80
2018-09-25T23:06:01.105Z,10.80
2018-09-25T23:08:35.424Z,10.80
2018-09-25T23:11:09.689Z,10.70
2018-09-25T23:13:44.128Z,10.70
2018-09-25T23:16:18.441Z,10.70
2018-09-25T23:18:52.937Z,10.70
2018-09-25T23:21:27.245Z,10.70
2018-09-25T23:24:02.352Z,10.70
2018-09-25T23:29:11.938Z,10.70
2018-09-25T23:31:46.280Z,10.70
2018-09-25T23:34:20.735Z,10.70
2018-09-25T23:36:55.099Z,10.70
2018-09-25T23:39:24.651Z,10.60
2018-09-25T23:41:53.488Z,10.60
2018-09-25T23:44:22.334Z,10.60
2018-09-25T23:46:51.163Z,10.70
2018-09-25T23:49:20.806Z,10.60
2018-09-25T23:51:49.573Z,10.70
2018-09-25T23:54:18.435Z,10.60
2018-09-25T23:56:47.297Z,10.60
2018-09-25T23:59:16.131Z,10.60
